Time;durP1;ratioP1;P1;durP2;ratioP2;P2;SDS_P1;SDS_P2;PMS_P1;PMS_P2;Temp;Humidity;BMP_temperature;BMP_pressure;BME280_temperature;BME280_humidity;BME280_pressure;Samples;Min_cycle;Max_cycle;Signal;HPM_P1;HPM_P2
2021/04/06 00:01:22;;;;;;;1.40;0.43;;;2.50;62.00;;;;;;6244136;23;19996;-76
2021/04/06 00:03:50;;;;;;;1.37;0.70;;;2.40;61.80;;;;;;6270460;22;19992;-78
2021/04/06 00:06:16;;;;;;;1.57;0.67;;;2.40;61.30;;;;;;6246505;23;20000;-78
2021/04/06 00:08:43;;;;;;;3.53;0.60;;;2.40;61.40;;;;;;6272741;22;20011;-78
2021/04/06 00:11:10;;;;;;;2.70;0.70;;;2.40;61.40;;;;;;6272946;22;20003;-78
2021/04/06 00:13:37;;;;;;;2.07;0.30;;;2.40;61.20;;;;;;6246772;23;19996;-78
2021/04/06 00:16:06;;;;;;;1.27;0.57;;;2.40;60.90;;;;;;6247629;23;20079;-79
2021/04/06 00:18:33;;;;;;;2.07;0.80;;;2.40;61.00;;;;;;6247404;23;20073;-78
2021/04/06 00:21:01;;;;;;;1.00;0.50;;;2.40;61.30;;;;;;6249394;23;19996;-78
2021/04/06 00:23:30;;;;;;;3.30;0.60;;;2.40;61.60;;;;;;6246826;23;20070;-78
2021/04/06 00:25:56;;;;;;;3.90;0.67;;;2.30;61.80;;;;;;6248978;23;20004;-79
2021/04/06 00:28:28;;;;;;;4.73;0.43;;;2.30;62.00;;;;;;6272342;22;20016;-77
2021/04/06 00:30:55;;;;;;;2.67;0.70;;;2.30;62.10;;;;;;6248087;23;20004;-78
2021/04/06 00:33:51;;;;;;;2.33;0.70;;;2.30;62.10;;;;;;6249202;23;19992;-79
2021/04/06 00:36:26;;;;;;;3.97;0.60;;;2.30;62.10;;;;;;6223716;23;20054;-78
2021/04/06 00:38:53;;;;;;;1.83;0.57;;;2.30;62.30;;;;;;6248248;23;20411;-78
2021/04/06 00:41:20;;;;;;;4.57;0.73;;;2.30;62.30;;;;;;6247821;23;19992;-79
2021/04/06 00:43:46;;;;;;;2.20;0.60;;;2.20;62.30;;;;;;6246560;23;19996;-78
2021/04/06 00:46:16;;;;;;;1.13;0.60;;;2.20;62.70;;;;;;6247922;23;20014;-80
2021/04/06 00:48:46;;;;;;;2.43;0.60;;;2.20;63.20;;;;;;6272882;22;20019;-80
2021/04/06 00:51:18;;;;;;;1.97;0.50;;;2.10;63.40;;;;;;6248214;23;20036;-80
2021/04/06 00:53:47;;;;;;;;;;;2.10;63.50;;;;;;6249239;22;20399;-79
2021/04/06 00:56:16;;;;;;;3.17;0.93;;;2.10;63.90;;;;;;6248629;23;19900;-78
2021/04/06 00:58:53;;;;;;;2.23;0.90;;;2.10;64.30;;;;;;6247917;23;20577;-79
2021/04/06 01:02:17;;;;;;;2.27;1.00;;;2.00;65.30;;;;;;6247648;23;20320;-78
2021/04/06 01:04:42;;;;;;;3.50;0.60;;;2.00;65.60;;;;;;6180697;23;20014;-78
2021/04/06 01:07:14;;;;;;;3.63;0.63;;;1.90;66.10;;;;;;6249046;23;20062;-78
2021/04/06 01:09:42;;;;;;;1.73;0.70;;;1.90;66.60;;;;;;6247186;23;20319;-78
2021/04/06 01:12:10;;;;;;;4.10;0.60;;;1.80;67.00;;;;;;6247904;22;20012;-78
2021/04/06 01:14:39;;;;;;;2.67;0.60;;;1.70;67.30;;;;;;6248305;23;20478;-79
2021/04/06 01:17:07;;;;;;;4.50;0.73;;;1.70;66.90;;;;;;6248297;23;19996;-79
2021/04/06 01:19:33;;;;;;;3.80;0.70;;;1.70;67.50;;;;;;6270642;22;20315;-78
2021/04/06 01:22:01;;;;;;;2.40;0.70;;;1.70;66.80;;;;;;6271656;22;20030;-78
2021/04/06 01:24:30;;;;;;;1.63;0.50;;;1.60;67.00;;;;;;6246654;23;20019;-78
2021/04/06 01:26:57;;;;;;;6.57;0.90;;;1.60;67.00;;;;;;6247671;22;19996;-79
2021/04/06 01:29:24;;;;;;;1.20;0.63;;;1.60;67.30;;;;;;6245169;23;20056;-78
2021/04/06 01:31:54;;;;;;;2.93;0.60;;;1.50;67.00;;;;;;6246224;23;20000;-79
2021/04/06 01:34:20;;;;;;;2.27;0.60;;;1.60;67.50;;;;;;6247265;23;20003;-79
2021/04/06 01:36:47;;;;;;;4.20;0.77;;;1.50;68.40;;;;;;6270792;22;20036;-79
2021/04/06 01:39:26;;;;;;;1.53;0.50;;;1.50;68.20;;;;;;6246085;23;20011;-79
2021/04/06 01:42:04;;;;;;;2.00;0.50;;;1.50;68.20;;;;;;6246195;23;20008;-79
2021/04/06 01:44:31;;;;;;;1.07;0.60;;;1.50;67.90;;;;;;6245216;23;20002;-79
2021/04/06 01:46:57;;;;;;;1.60;0.80;;;1.50;68.10;;;;;;6246239;23;20008;-79
2021/04/06 01:49:25;;;;;;;3.13;0.80;;;1.50;68.20;;;;;;6245195;23;19996;-77
2021/04/06 01:51:57;;;;;;;0.97;0.47;;;1.40;67.80;;;;;;6245593;23;20031;-78
2021/04/06 01:54:23;;;;;;;2.93;0.87;;;1.40;68.10;;;;;;6246475;23;19996;-78
2021/04/06 01:57:03;;;;;;;1.03;0.40;;;1.40;68.50;;;;;;6271619;22;20000;-78
2021/04/06 01:59:34;;;;;;;1.43;0.50;;;1.40;69.40;;;;;;6245153;23;20411;-78
2021/04/06 02:02:02;;;;;;;4.63;0.70;;;1.40;69.00;;;;;;6245822;23;19999;-78
2021/04/06 02:04:29;;;;;;;7.93;0.87;;;1.40;68.70;;;;;;6270489;22;20028;-78
2021/04/06 02:06:57;;;;;;;4.03;0.60;;;1.40;68.50;;;;;;6245766;23;20000;-78
2021/04/06 02:09:23;;;;;;;2.47;0.60;;;1.40;68.50;;;;;;6246295;23;19996;-77
2021/04/06 02:11:49;;;;;;;5.40;0.63;;;1.30;68.50;;;;;;6245613;23;20432;-78
2021/04/06 02:14:17;;;;;;;2.43;0.70;;;1.40;68.60;;;;;;6244955;23;20371;-78
2021/04/06 02:16:51;;;;;;;1.77;0.50;;;1.40;68.50;;;;;;6244961;23;20332;-79
2021/04/06 02:19:41;;;;;;;7.63;0.87;;;1.40;68.20;;;;;;6245864;23;20004;-79
2021/04/06 02:22:12;;;;;;;4.83;0.73;;;1.40;68.20;;;;;;6245845;23;20419;-80
2021/04/06 02:24:41;;;;;;;2.23;0.60;;;1.40;68.40;;;;;;6244563;23;20087;-79
2021/04/06 02:27:21;;;;;;;2.87;0.53;;;1.40;68.20;;;;;;6245840;23;20059;-80
2021/04/06 02:29:55;;;;;;;2.23;0.70;;;1.50;68.40;;;;;;6270496;22;20461;-79
2021/04/06 02:32:26;;;;;;;3.17;0.73;;;1.40;68.80;;;;;;6246782;23;20008;-79
2021/04/06 02:34:55;;;;;;;3.03;0.73;;;1.40;69.00;;;;;;6247183;22;20000;-79
2021/04/06 02:37:43;;;;;;;6.07;0.80;;;1.40;68.90;;;;;;6246817;22;20003;-78
2021/04/06 02:40:11;;;;;;;3.47;1.00;;;1.40;68.80;;;;;;6245752;23;20000;-80
2021/04/06 02:42:42;;;;;;;3.23;0.90;;;1.40;68.70;;;;;;6270461;22;20363;-80
2021/04/06 02:45:15;;;;;;;4.23;0.87;;;1.40;69.40;;;;;;6246376;23;19996;-80
2021/04/06 02:47:50;;;;;;;2.63;0.90;;;1.40;69.30;;;;;;6244938;23;20312;-80
2021/04/06 02:50:19;;;;;;;4.23;1.07;;;1.40;69.30;;;;;;6245047;23;20058;-80
2021/04/06 02:52:45;;;;;;;5.23;1.00;;;1.40;69.00;;;;;;6246079;23;19999;-79
2021/04/06 02:55:12;;;;;;;2.67;0.70;;;1.40;68.70;;;;;;6246803;23;20000;-78
2021/04/06 02:57:43;;;;;;;2.27;0.63;;;1.40;69.20;;;;;;6244488;23;20000;-78
2021/04/06 03:00:10;;;;;;;2.60;0.50;;;1.40;68.40;;;;;;6245286;23;20024;-78
2021/04/06 03:02:40;;;;;;;3.63;0.90;;;1.40;68.70;;;;;;6244330;23;20051;-77
2021/04/06 03:05:06;;;;;;;3.03;0.80;;;1.40;68.40;;;;;;6245081;23;20427;-78
2021/04/06 03:07:32;;;;;;;5.10;0.80;;;1.40;68.50;;;;;;6245793;23;20000;-78
2021/04/06 03:09:59;;;;;;;4.80;0.83;;;1.40;68.30;;;;;;6245115;23;20433;-78
2021/04/06 03:12:30;;;;;;;6.07;1.33;;;1.40;68.40;;;;;;6243954;23;19996;-78
2021/04/06 03:14:58;;;;;;;6.47;1.00;;;1.40;68.70;;;;;;6245164;23;20007;-78
2021/04/06 03:17:24;;;;;;;3.93;0.77;;;1.40;68.80;;;;;;6244248;23;20114;-78
2021/04/06 03:19:57;;;;;;;4.07;1.30;;;1.40;68.30;;;;;;6245820;23;19996;-78
2021/04/06 03:22:25;;;;;;;10.23;1.57;;;1.40;68.30;;;;;;6243836;23;20006;-77
2021/04/06 03:24:51;;;;;;;5.67;1.67;;;1.40;68.50;;;;;;6245012;23;20046;-78
2021/04/06 03:27:26;;;;;;;5.20;1.13;;;1.40;68.10;;;;;;6246277;23;20295;-79
2021/04/06 03:29:52;;;;;;;3.80;0.77;;;1.40;67.50;;;;;;6245289;23;20000;-79
2021/04/06 03:32:18;;;;;;;3.07;0.80;;;1.30;67.60;;;;;;6245536;23;20000;-79
2021/04/06 03:34:44;;;;;;;6.97;0.97;;;1.30;68.10;;;;;;6244166;23;20318;-79
2021/04/06 03:37:10;;;;;;;5.10;0.80;;;1.40;67.90;;;;;;6246329;23;20131;-79
2021/04/06 03:39:36;;;;;;;1.50;0.70;;;1.30;68.00;;;;;;6245532;23;19996;-79
2021/04/06 03:42:03;;;;;;;5.73;1.07;;;1.30;68.40;;;;;;6244525;23;20004;-79
2021/04/06 03:44:30;;;;;;;4.17;1.10;;;1.30;67.90;;;;;;6245578;23;19996;-78
2021/04/06 03:46:59;;;;;;;9.47;1.17;;;1.30;68.10;;;;;;6244971;23;20012;-80
2021/04/06 03:49:29;;;;;;;7.27;1.20;;;1.30;68.10;;;;;;6245451;23;19996;-77
2021/04/06 03:51:57;;;;;;;7.20;1.17;;;1.30;68.00;;;;;;6270442;22;19992;-78
2021/04/06 03:54:31;;;;;;;2.20;0.83;;;1.30;68.30;;;;;;6270464;22;20036;-77
2021/04/06 03:56:57;;;;;;;3.27;0.70;;;1.30;68.30;;;;;;6246336;22;20008;-80
2021/04/06 03:59:27;;;;;;;8.03;1.20;;;1.20;68.30;;;;;;6245729;23;20068;-80
2021/04/06 04:01:53;;;;;;;6.40;0.90;;;1.20;68.20;;;;;;6270211;22;20022;-79
2021/04/06 04:04:18;;;;;;;5.80;1.10;;;1.20;68.50;;;;;;6244503;23;20490;-79
2021/04/06 04:06:44;;;;;;;6.83;0.90;;;1.20;68.60;;;;;;6245496;23;20004;-79
2021/04/06 04:09:10;;;;;;;8.60;1.20;;;1.20;68.70;;;;;;6244916;23;20318;-79
2021/04/06 04:11:35;;;;;;;2.97;0.90;;;1.20;68.80;;;;;;6245454;23;19992;-79
2021/04/06 04:14:01;;;;;;;4.70;1.10;;;1.20;68.50;;;;;;6246451;23;20333;-79
2021/04/06 04:16:27;;;;;;;3.47;0.90;;;1.30;68.60;;;;;;6243995;23;20004;-79
2021/04/06 04:18:53;;;;;;;3.93;0.87;;;1.30;68.40;;;;;;6245066;23;20001;-80
2021/04/06 04:21:19;;;;;;;3.23;0.90;;;1.30;68.50;;;;;;6244706;23;20011;-79
2021/04/06 04:23:44;;;;;;;3.67;0.93;;;1.30;68.00;;;;;;6245491;23;20419;-80
2021/04/06 04:26:10;;;;;;;5.30;1.13;;;1.30;68.00;;;;;;6244777;23;20003;-79
2021/04/06 04:28:36;;;;;;;9.20;1.43;;;1.40;68.30;;;;;;6269307;22;20075;-80
2021/04/06 04:31:10;;;;;;;5.20;1.40;;;1.30;68.00;;;;;;6244861;23;20000;-78
2021/04/06 04:33:36;;;;;;;5.27;1.37;;;1.30;68.30;;;;;;6243785;23;20004;-79
2021/04/06 04:36:01;;;;;;;8.67;1.07;;;1.40;68.50;;;;;;6244594;23;20539;-78
2021/04/06 04:38:27;;;;;;;4.90;1.40;;;1.40;68.20;;;;;;6243779;23;20284;-78
2021/04/06 04:40:53;;;;;;;10.47;1.00;;;1.30;68.00;;;;;;6244536;23;20442;-78
2021/04/06 04:43:19;;;;;;;6.00;1.10;;;1.30;68.10;;;;;;6269540;22;19997;-78
2021/04/06 04:45:45;;;;;;;8.33;1.00;;;1.30;68.50;;;;;;6243828;23;20012;-78
2021/04/06 04:48:11;;;;;;;5.50;1.03;;;1.20;68.50;;;;;;6244388;23;20075;-78
2021/04/06 04:50:36;;;;;;;6.03;0.90;;;1.20;69.00;;;;;;6243821;23;20030;-78
2021/04/06 04:53:02;;;;;;;2.53;0.80;;;1.20;69.00;;;;;;6271377;22;20050;-78
2021/04/06 04:55:28;;;;;;;4.07;0.90;;;1.20;68.80;;;;;;6245598;23;20000;-77
2021/04/06 04:57:54;;;;;;;5.77;1.10;;;1.20;68.80;;;;;;6246472;23;20114;-78
2021/04/06 05:00:20;;;;;;;4.50;1.00;;;1.20;68.70;;;;;;6246069;23;20000;-78
2021/04/06 05:02:46;;;;;;;4.17;1.10;;;1.20;68.70;;;;;;6245131;23;20362;-78
2021/04/06 05:05:14;;;;;;;3.13;0.80;;;1.10;69.00;;;;;;6246157;23;20004;-78
2021/04/06 05:07:43;;;;;;;4.07;0.90;;;1.20;69.50;;;;;;6245705;23;19996;-79
2021/04/06 05:10:12;;;;;;;10.83;1.30;;;1.10;69.50;;;;;;6246361;23;20355;-79
2021/04/06 05:12:38;;;;;;;9.17;1.27;;;1.10;69.70;;;;;;6245061;23;20000;-78
2021/04/06 05:15:06;;;;;;;5.83;1.10;;;1.10;69.60;;;;;;6246123;23;20023;-81
2021/04/06 05:17:32;;;;;;;5.40;1.20;;;1.10;69.80;;;;;;6246719;23;20495;-80
2021/04/06 05:19:57;;;;;;;4.93;1.27;;;1.10;69.90;;;;;;6271381;22;20028;-81
2021/04/06 05:22:23;;;;;;;7.73;1.37;;;1.20;69.90;;;;;;6271462;22;20003;-80
2021/04/06 05:24:48;;;;;;;5.00;0.90;;;1.20;69.70;;;;;;6216726;23;20444;-81
2021/04/06 05:27:15;;;;;;;6.53;1.70;;;1.20;69.90;;;;;;6190831;23;20000;-81
2021/04/06 05:29:40;;;;;;;9.40;1.10;;;1.30;69.60;;;;;;6189883;23;20079;-80
2021/04/06 05:32:06;;;;;;;4.30;1.23;;;1.30;69.50;;;;;;6217686;23;20039;-79
2021/04/06 05:34:32;;;;;;;3.00;0.90;;;1.30;69.30;;;;;;6216600;23;19996;-79
2021/04/06 05:36:58;;;;;;;4.00;1.20;;;1.30;69.60;;;;;;6190389;23;20005;-79
2021/04/06 05:39:23;;;;;;;6.77;0.90;;;1.30;69.30;;;;;;6216686;23;20004;-78
2021/04/06 05:41:49;;;;;;;6.00;1.00;;;1.30;69.20;;;;;;6215784;23;20059;-80
2021/04/06 05:44:17;;;;;;;5.17;1.10;;;1.20;69.10;;;;;;6190350;23;20000;-78
2021/04/06 05:46:46;;;;;;;5.57;0.90;;;1.20;69.60;;;;;;6189502;23;20017;-80
2021/04/06 05:49:16;;;;;;;7.60;0.93;;;1.20;69.70;;;;;;6215314;23;20007;-81
2021/04/06 05:51:43;;;;;;;3.53;1.00;;;1.20;69.40;;;;;;6216447;23;20359;-79
2021/04/06 05:54:11;;;;;;;6.73;1.07;;;1.20;69.40;;;;;;6190317;23;20001;-79
2021/04/06 05:56:36;;;;;;;3.40;0.90;;;1.20;69.20;;;;;;6189580;23;20000;-78
2021/04/06 05:59:06;;;;;;;6.23;1.10;;;1.20;69.60;;;;;;6216672;23;20008;-78
2021/04/06 06:01:40;;;;;;;10.90;1.50;;;1.20;69.20;;;;;;6189745;23;20000;-78
2021/04/06 06:04:14;;;;;;;5.77;1.10;;;1.20;69.30;;;;;;6216357;23;20071;-78
2021/04/06 06:06:40;;;;;;;5.00;0.90;;;1.20;69.20;;;;;;6215707;23;19997;-79
2021/04/06 06:09:09;;;;;;;5.87;1.00;;;1.20;69.20;;;;;;6216710;23;20300;-79
2021/04/06 06:12:10;;;;;;;2.70;1.10;;;1.30;69.30;;;;;;6216056;23;20296;-77
2021/04/06 06:14:37;;;;;;;8.00;1.20;;;1.30;69.60;;;;;;6189091;23;20032;-78
2021/04/06 06:17:15;;;;;;;6.13;1.50;;;1.30;69.90;;;;;;6216148;23;19997;-78
2021/04/06 06:19:42;;;;;;;5.47;1.00;;;1.30;69.20;;;;;;6215863;23;20027;-78
2021/04/06 06:22:14;;;;;;;5.67;1.33;;;1.30;69.20;;;;;;6190282;23;19996;-78
2021/04/06 06:24:43;;;;;;;3.22;1.23;;;1.30;69.10;;;;;;6244087;23;20019;-78
2021/04/06 06:30:19;;;;;;;3.63;1.20;;;1.40;68.90;;;;;;6246412;23;19996;-78
2021/04/06 06:32:45;;;;;;;4.27;1.17;;;1.40;69.00;;;;;;6244203;23;20030;-74
2021/04/06 06:35:11;;;;;;;4.13;1.40;;;1.50;68.20;;;;;;6269699;22;20050;-74
2021/04/06 06:37:37;;;;;;;3.17;1.37;;;1.50;68.00;;;;;;6245233;23;20370;-74
2021/04/06 06:40:05;;;;;;;3.60;1.27;;;1.60;68.00;;;;;;6241959;23;20400;-75
2021/04/06 06:42:40;;;;;;;5.50;1.00;;;1.70;68.00;;;;;;6244436;23;19995;-73
2021/04/06 06:45:22;;;;;;;4.80;1.90;;;1.80;68.30;;;;;;6269251;22;20008;-74
2021/04/06 06:47:54;;;;;;;;;;;1.90;68.20;;;;;;6243624;23;20031;-73
2021/04/06 06:50:20;;;;;;;3.60;1.27;;;1.90;67.30;;;;;;6243447;23;20321;-74
2021/04/06 06:52:52;;;;;;;3.20;0.90;;;1.90;67.40;;;;;;6242799;23;20004;-73
2021/04/06 06:55:24;;;;;;;6.20;1.25;;;1.80;67.60;;;;;;6243473;23;20004;-75
2021/04/06 06:57:50;;;;;;;5.65;1.30;;;1.90;68.40;;;;;;6268734;22;20415;-73
2021/04/06 07:00:19;;;;;;;4.43;1.63;;;1.90;67.60;;;;;;6245428;23;20059;-72
2021/04/06 07:02:45;;;;;;;4.87;1.40;;;1.90;66.70;;;;;;6244426;23;20001;-73
2021/04/06 07:05:19;;;;;;;5.37;1.50;;;2.00;67.60;;;;;;6243444;23;20026;-75
2021/04/06 07:08:05;;;;;;;2.87;1.30;;;2.10;67.10;;;;;;6244147;23;20005;-73
2021/04/06 07:10:39;;;;;;;4.60;1.20;;;2.10;67.00;;;;;;6244061;23;19988;-73
2021/04/06 07:13:18;;;;;;;3.90;1.40;;;2.10;67.10;;;;;;6242800;23;19999;-75
2021/04/06 07:15:45;;;;;;;4.07;1.10;;;2.10;67.30;;;;;;6244278;23;20263;-75
2021/04/06 07:18:17;;;;;;;4.00;1.27;;;2.20;67.40;;;;;;6242866;23;20000;-75
2021/04/06 07:20:53;;;;;;;6.40;1.10;;;2.10;67.20;;;;;;6241505;23;20062;-75
2021/04/06 07:23:56;;;;;;;7.03;1.00;;;2.10;67.90;;;;;;6244201;23;20047;-75
2021/04/06 07:26:22;;;;;;;5.00;1.50;;;2.10;68.60;;;;;;6243650;23;20062;-78
2021/04/06 07:28:48;;;;;;;3.30;0.97;;;2.20;68.40;;;;;;6243757;23;20031;-74
2021/04/06 07:31:15;;;;;;;4.33;1.00;;;2.30;67.50;;;;;;6242870;23;20008;-77
2021/04/06 07:33:42;;;;;;;7.20;1.73;;;2.30;67.90;;;;;;6242736;23;20050;-73
2021/04/06 07:36:13;;;;;;;5.00;1.27;;;2.40;66.80;;;;;;6245286;23;20510;-74
2021/04/06 07:38:49;;;;;;;4.37;1.43;;;2.40;66.80;;;;;;6242510;23;20122;-74
2021/04/06 07:41:25;;;;;;;9.80;1.40;;;2.40;67.10;;;;;;6244896;23;20009;-74
2021/04/06 07:43:53;;;;;;;5.37;1.73;;;2.40;67.10;;;;;;6242608;23;20000;-74
2021/04/06 07:46:34;;;;;;;8.87;1.77;;;2.40;67.20;;;;;;6268274;22;20316;-74
2021/04/06 07:49:22;;;;;;;4.03;1.63;;;2.40;67.40;;;;;;6242859;22;20004;-74
2021/04/06 07:51:53;;;;;;;5.77;1.40;;;2.40;67.00;;;;;;6242072;23;20004;-76
2021/04/06 07:54:21;;;;;;;5.25;1.38;;;2.40;66.80;;;;;;6243162;23;20444;-76
2021/04/06 07:56:57;;;;;;;6.57;1.87;;;2.40;66.80;;;;;;6243571;23;20008;-74
2021/04/06 07:59:23;;;;;;;5.53;1.40;;;2.40;66.90;;;;;;6242882;23;20091;-74
2021/04/06 08:01:54;;;;;;;5.87;1.37;;;2.60;66.90;;;;;;6242131;23;20030;-74
2021/04/06 08:04:44;;;;;;;3.65;1.27;;;2.50;66.20;;;;;;6242319;23;20039;-75
2021/04/06 08:07:19;;;;;;;5.13;1.20;;;2.50;66.50;;;;;;6242492;23;20004;-74
2021/04/06 08:09:51;;;;;;;4.00;1.20;;;2.50;66.70;;;;;;6244669;23;20011;-74
2021/04/06 08:12:20;;;;;;;2.15;1.20;;;2.40;66.20;;;;;;6244738;23;20054;-73
2021/04/06 08:14:50;;;;;;;2.87;1.20;;;2.40;66.50;;;;;;6241929;23;20095;-74
2021/04/06 08:17:28;;;;;;;4.80;1.33;;;2.50;67.10;;;;;;6244336;23;20059;-72
2021/04/06 08:20:20;;;;;;;1.53;1.10;;;2.50;66.90;;;;;;6244914;23;20024;-74
2021/04/06 08:22:50;;;;;;;3.90;1.13;;;2.60;66.90;;;;;;6236210;23;20016;-73
2021/04/06 08:25:15;;;;;;;3.67;1.40;;;2.60;66.40;;;;;;6242711;23;20008;-74
2021/04/06 08:27:43;;;;;;;8.37;1.53;;;2.50;66.70;;;;;;6243430;23;20092;-74
2021/04/06 08:30:18;;;;;;;4.83;1.07;;;2.70;67.80;;;;;;6245259;23;20000;-76
2021/04/06 08:33:07;;;;;;;7.40;1.40;;;2.70;66.70;;;;;;6243649;23;20319;-75
2021/04/06 08:41:03;;;;;;;4.77;1.50;;;2.90;66.40;;;;;;6245693;23;20103;-73
2021/04/06 08:43:37;;;;;;;5.77;1.50;;;2.90;66.20;;;;;;6244234;23;20032;-74
2021/04/06 08:46:05;;;;;;;8.27;1.23;;;2.90;66.20;;;;;;6244640;23;20087;-74
2021/04/06 08:48:50;;;;;;;4.40;1.33;;;2.80;65.50;;;;;;6243760;23;20042;-74
2021/04/06 08:51:18;;;;;;;4.50;1.23;;;2.80;66.40;;;;;;6244894;23;20007;-74
2021/04/06 08:53:44;;;;;;;9.13;2.10;;;2.90;67.50;;;;;;6245508;23;20709;-73
2021/04/06 08:56:14;;;;;;;10.37;1.50;;;2.90;66.90;;;;;;6246299;23;20430;-73
2021/04/06 08:58:40;;;;;;;6.30;1.13;;;3.00;66.30;;;;;;6243941;23;20103;-73
2021/04/06 09:01:06;;;;;;;6.07;1.43;;;3.10;65.30;;;;;;6246284;23;20478;-73
2021/04/06 09:03:32;;;;;;;5.73;1.40;;;3.20;64.70;;;;;;6244104;23;20300;-74
2021/04/06 09:06:04;;;;;;;6.70;1.20;;;3.30;65.40;;;;;;6244341;23;20004;-73
2021/04/06 09:08:29;;;;;;;3.38;1.10;;;3.30;65.50;;;;;;6243539;23;20414;-74
2021/04/06 09:11:04;;;;;;;5.30;1.30;;;3.30;64.80;;;;;;6243885;23;20011;-73
2021/04/06 09:13:31;;;;;;;3.80;1.40;;;3.30;64.50;;;;;;6243170;23;20000;-73
2021/04/06 09:15:59;;;;;;;3.50;1.20;;;3.40;65.00;;;;;;6243960;23;20012;-75
2021/04/06 09:18:25;;;;;;;6.30;1.30;;;3.40;64.30;;;;;;6244067;23;20151;-73
2021/04/06 09:20:52;;;;;;;4.80;1.40;;;3.50;64.70;;;;;;6245693;23;20000;-74
2021/04/06 09:23:17;;;;;;;2.30;1.30;;;3.40;64.70;;;;;;6269706;22;20024;-73
2021/04/06 09:25:43;;;;;;;5.90;1.67;;;3.40;64.80;;;;;;6269602;22;20331;-73
2021/04/06 09:28:09;;;;;;;4.57;1.50;;;3.50;65.30;;;;;;6271160;22;20488;-74
2021/04/06 09:30:44;;;;;;;5.33;1.57;;;3.50;65.00;;;;;;6269168;22;20481;-74
2021/04/06 09:33:12;;;;;;;3.17;1.27;;;3.60;64.90;;;;;;6270417;22;20027;-73
2021/04/06 09:35:39;;;;;;;3.53;1.67;;;3.60;64.60;;;;;;6244037;23;20086;-74
2021/04/06 09:38:05;;;;;;;4.60;1.50;;;3.70;63.70;;;;;;6243969;23;20004;-74
2021/04/06 09:40:40;;;;;;;2.50;1.27;;;3.70;63.60;;;;;;6244471;23;20050;-75
2021/04/06 09:43:07;;;;;;;4.60;1.30;;;3.80;64.40;;;;;;6245513;23;20079;-74
2021/04/06 09:45:33;;;;;;;4.43;1.40;;;4.00;64.10;;;;;;6243476;23;20313;-73
2021/04/06 09:47:59;;;;;;;7.67;1.20;;;4.10;63.40;;;;;;6243948;23;20004;-75
2021/04/06 09:50:27;;;;;;;6.43;1.53;;;4.00;63.30;;;;;;6244927;23;19996;-74
2021/04/06 09:52:54;;;;;;;6.93;1.70;;;4.10;62.90;;;;;;6244902;22;20408;-75
2021/04/06 09:55:22;;;;;;;4.73;1.50;;;4.10;62.70;;;;;;6246243;23;20008;-75
2021/04/06 09:57:51;;;;;;;4.80;1.57;;;3.90;63.50;;;;;;6268945;22;20046;-74
2021/04/06 10:00:21;;;;;;;4.37;1.30;;;4.00;64.30;;;;;;6243791;23;20004;-73
2021/04/06 10:03:14;;;;;;;6.50;1.30;;;4.10;64.00;;;;;;6244883;23;20027;-74
2021/04/06 10:05:43;;;;;;;4.23;1.43;;;4.20;62.40;;;;;;6239343;23;20042;-72
2021/04/06 10:08:12;;;;;;;7.90;1.50;;;4.20;63.30;;;;;;6244153;23;20004;-73
2021/04/06 10:10:47;;;;;;;6.43;1.53;;;4.10;62.40;;;;;;6245174;23;20000;-73
2021/04/06 10:13:13;;;;;;;5.27;1.50;;;4.10;63.20;;;;;;6244460;23;20054;-72
2021/04/06 10:15:39;;;;;;;4.57;1.30;;;4.20;64.00;;;;;;6243282;23;20398;-73
2021/04/06 10:18:12;;;;;;;4.40;1.53;;;4.20;61.60;;;;;;6245409;23;20004;-76
2021/04/06 10:20:50;;;;;;;4.37;1.13;;;4.50;61.60;;;;;;6243309;23;20032;-76
2021/04/06 10:23:33;;;;;;;2.47;1.20;;;4.60;60.90;;;;;;6244799;23;20016;-73
2021/04/06 10:25:58;;;;;;;2.70;1.50;;;4.80;60.50;;;;;;6269740;22;20004;-73
2021/04/06 10:28:27;;;;;;;5.27;1.40;;;4.90;60.00;;;;;;6245548;23;20000;-73
2021/04/06 10:30:59;;;;;;;4.37;1.30;;;5.00;59.40;;;;;;6243758;23;20377;-73
2021/04/06 10:33:29;;;;;;;7.10;1.42;;;5.10;60.30;;;;;;6245544;23;20000;-74
2021/04/06 10:35:58;;;;;;;4.20;1.47;;;5.10;60.20;;;;;;6245989;23;20004;-73
2021/04/06 10:38:35;;;;;;;7.93;1.93;;;4.70;60.40;;;;;;6243955;23;20094;-73
2021/04/06 10:41:12;;;;;;;3.50;1.13;;;5.00;61.00;;;;;;6245742;23;20004;-73
2021/04/06 10:43:47;;;;;;;3.83;1.10;;;5.10;58.20;;;;;;6268475;22;20004;-74
2021/04/06 10:46:18;;;;;;;3.80;1.10;;;5.10;58.80;;;;;;6244031;23;20103;-75
2021/04/06 10:48:49;;;;;;;5.78;1.23;;;5.10;58.90;;;;;;6242797;23;20012;-75
2021/04/06 10:51:21;;;;;;;6.13;1.13;;;5.10;59.10;;;;;;6269254;22;20409;-73
2021/04/06 10:53:52;;;;;;;14.52;1.80;;;5.10;59.40;;;;;;6268261;22;20668;-73
2021/04/06 10:56:21;;;;;;;5.07;1.42;;;5.10;58.50;;;;;;6244900;22;20011;-74
2021/04/06 10:58:48;;;;;;;4.53;1.30;;;5.20;59.90;;;;;;6242838;23;20016;-75
2021/04/06 11:01:20;;;;;;;4.97;1.33;;;5.20;58.80;;;;;;6269159;22;20496;-73
2021/04/06 11:03:57;;;;;;;5.82;1.40;;;5.20;58.90;;;;;;6244265;23;20082;-73
2021/04/06 11:06:32;;;;;;;3.93;1.40;;;5.30;59.30;;;;;;6243306;23;20004;-73
2021/04/06 11:08:59;;;;;;;4.57;1.27;;;5.30;58.40;;;;;;6244976;23;20067;-73
2021/04/06 11:11:34;;;;;;;2.57;1.20;;;5.30;56.80;;;;;;6242944;23;20012;-74
2021/04/06 11:14:05;;;;;;;2.77;1.50;;;5.40;57.70;;;;;;6244133;22;20074;-73
2021/04/06 11:16:32;;;;;;;2.17;1.00;;;5.60;55.50;;;;;;6243068;23;20012;-73
2021/04/06 11:19:10;;;;;;;4.17;1.30;;;5.80;56.30;;;;;;6244969;22;20367;-73
2021/04/06 11:21:42;;;;;;;6.60;1.30;;;5.70;54.20;;;;;;6267891;22;20004;-73
2021/04/06 11:24:09;;;;;;;5.80;1.30;;;5.80;54.70;;;;;;6243081;23;20045;-72
2021/04/06 11:26:35;;;;;;;5.17;1.60;;;6.00;53.40;;;;;;6242448;23;20012;-73
2021/04/06 11:29:01;;;;;;;3.30;1.20;;;5.90;53.00;;;;;;6243713;23;20438;-73
2021/04/06 11:31:28;;;;;;;4.83;1.43;;;5.60;54.20;;;;;;6272207;22;20004;-73
2021/04/06 11:33:54;;;;;;;4.30;1.23;;;5.70;55.10;;;;;;6245974;23;20000;-73
2021/04/06 11:36:20;;;;;;;1.77;1.00;;;5.80;54.70;;;;;;6243179;23;20338;-73
2021/04/06 11:38:46;;;;;;;2.77;1.53;;;5.70;54.60;;;;;;6241920;23;20012;-74
2021/04/06 11:41:12;;;;;;;3.27;1.20;;;5.70;54.20;;;;;;6242938;23;20000;-74
2021/04/06 11:43:37;;;;;;;3.33;1.17;;;5.90;54.80;;;;;;6243434;23;20503;-73
2021/04/06 11:46:03;;;;;;;2.97;1.20;;;6.20;53.30;;;;;;6242550;23;20016;-74
2021/04/06 11:48:29;;;;;;;4.67;1.20;;;6.20;54.10;;;;;;6243697;23;20047;-72
2021/04/06 11:50:55;;;;;;;3.00;1.03;;;6.20;52.70;;;;;;6243291;23;20032;-73
2021/04/06 11:53:20;;;;;;;1.83;0.80;;;6.20;53.10;;;;;;6244593;23;20336;-74
2021/04/06 11:55:46;;;;;;;3.00;1.10;;;6.20;54.30;;;;;;6242590;23;20008;-74
2021/04/06 11:58:12;;;;;;;3.17;0.90;;;6.40;52.00;;;;;;6243160;23;20047;-73
2021/04/06 12:00:38;;;;;;;5.60;1.10;;;6.50;49.20;;;;;;6267890;22;20118;-73
2021/04/06 12:03:04;;;;;;;7.00;1.20;;;6.80;49.90;;;;;;6244583;23;20011;-72
2021/04/06 12:05:30;;;;;;;6.77;1.20;;;7.10;50.70;;;;;;6242650;23;20008;-73
2021/04/06 12:07:56;;;;;;;4.00;1.00;;;6.90;49.60;;;;;;6244857;23;20508;-72
2021/04/06 12:10:21;;;;;;;6.83;1.10;;;6.70;50.30;;;;;;6243127;23;20331;-73
2021/04/06 12:12:48;;;;;;;4.13;1.10;;;6.50;52.30;;;;;;6243529;23;20000;-73
2021/04/06 12:15:14;;;;;;;2.97;1.53;;;6.00;61.80;;;;;;6243129;23;20394;-73
2021/04/06 12:17:40;;;;;;;4.43;1.03;;;5.40;64.40;;;;;;6243720;23;20447;-75
2021/04/06 12:20:06;;;;;;;1.40;0.70;;;5.20;63.70;;;;;;6268354;22;20004;-74
2021/04/06 12:22:34;;;;;;;1.70;0.50;;;5.10;63.40;;;;;;6267147;22;20004;-73
2021/04/06 12:24:59;;;;;;;2.20;0.80;;;4.90;64.10;;;;;;6242597;23;20335;-73
2021/04/06 12:27:25;;;;;;;0.70;0.40;;;4.60;66.00;;;;;;6267953;22;20008;-73
2021/04/06 12:29:51;;;;;;;1.27;0.43;;;4.50;69.40;;;;;;6244677;23;20111;-74
2021/04/06 12:32:17;;;;;;;2.27;0.60;;;4.20;73.60;;;;;;6242464;23;20004;-73
2021/04/06 12:34:43;;;;;;;1.07;0.90;;;4.00;75.20;;;;;;6243311;23;20413;-73
2021/04/06 12:37:09;;;;;;;3.73;1.00;;;3.80;75.50;;;;;;6244656;23;20001;-74
2021/04/06 12:39:35;;;;;;;4.00;1.07;;;3.80;75.90;;;;;;6242627;23;20091;-74
2021/04/06 12:42:01;;;;;;;2.17;1.10;;;3.80;75.50;;;;;;6241956;23;20391;-74
2021/04/06 12:44:29;;;;;;;1.67;0.97;;;3.70;75.40;;;;;;6242754;23;20008;-74
2021/04/06 12:46:54;;;;;;;2.83;1.20;;;3.80;74.50;;;;;;6268913;22;20016;-73
2021/04/06 12:49:20;;;;;;;6.40;1.10;;;3.70;74.70;;;;;;6244148;23;19996;-75
2021/04/06 12:51:46;;;;;;;2.13;1.13;;;3.60;75.60;;;;;;6268048;22;20427;-76
2021/04/06 12:54:11;;;;;;;1.40;0.90;;;3.60;75.00;;;;;;6243311;23;20000;-75
2021/04/06 12:56:37;;;;;;;1.90;0.70;;;3.60;72.80;;;;;;6242315;23;20012;-79
2021/04/06 12:59:03;;;;;;;1.33;0.60;;;3.60;75.10;;;;;;6243366;23;20091;-75
2021/04/06 13:01:28;;;;;;;2.17;0.80;;;3.60;73.00;;;;;;6243841;23;20408;-73
2021/04/06 13:03:54;;;;;;;3.23;0.50;;;3.50;70.60;;;;;;6243102;23;20012;-73
2021/04/06 13:06:20;;;;;;;0.53;0.50;;;3.60;71.70;;;;;;6268087;22;20008;-73
2021/04/06 13:08:45;;;;;;;1.43;0.70;;;3.80;70.70;;;;;;6243556;23;20001;-73
2021/04/06 13:11:11;;;;;;;4.77;0.90;;;4.00;69.40;;;;;;6244064;23;20063;-73
2021/04/06 13:13:37;;;;;;;1.97;0.80;;;4.50;69.70;;;;;;6242145;23;20016;-73
2021/04/06 13:16:02;;;;;;;1.93;0.50;;;5.20;68.30;;;;;;6244640;23;20004;-73
2021/04/06 13:18:29;;;;;;;2.83;0.83;;;6.00;63.90;;;;;;6244073;23;20062;-72